首页
METAR-TAF:

METAR-TAF

机场 :

门多萨, 阿根廷

纬度: 32-50S, 经度: 068-47W, 海拔: 705米

当前天气观测

该预报发布于1小时和0分钟前的01:00 UTC
风速3节,风向南转西南
温度 31°C
湿度 52%
气压 1009 hPa
能见度10公里或以上
1500米以下无云,无积雨云

METAR: SAME 230100Z 20003KT CAVOK 31/20 Q1009

时间: 23:00 (02:00 UTC)

预报

该预报发布于3小时和0分钟前的23:00 UTC
预报有效从23日的 00点(UTC)到 23日的 24点(UTC)
风速5节,风向南转西南
能见度10公里或以上
少量云层高于3500英尺
少量云层高于4000英尺, 塔状积云.
散云层高于7000英尺
几率 30% :
短暂存在
从 23日的 01点(UTC)到 23日的 05点(UTC)
风速10节,风向东南
能見度: 8000
多云层高于3000英尺
少量云层高于4000英尺, 积雨云.
雷暴, 雨
成为
从 23日的 12点(UTC)到 23日的 14点(UTC)
风速5节,风向
能见度10公里或以上
少量云层高于4000英尺
散云层高于8000英尺
成为
从 23日的 21点(UTC)到 23日的 23点(UTC)
风速5节,风向南转西南
能见度10公里或以上
散云层高于4000英尺
少量云层高于5000英尺, 积雨云.
附近有雷暴

TAF: SAME 222300Z 2300/2324 20005KT 9999 FEW035 FEW040TCU SCT070 TN22/2310Z TX35/2321Z PROB30 TEMPO 2301/2305 14010KT 8000 TSRA BKN030 FEW040CB BECMG 2312/2314 18005KT 9999 FEW040 SCT080 BECMG 2321/2323 20005KT 9999 VCTS SCT040 FEW050CB

超过4000个机场的气象观测和天气预报(METAR&TAF报告)。

可查询的气象台以黄色和红色小点在地图上表示。

将鼠标移到小点上方,可查看气象台名称。

然后点击查看天气观测和预报。

如需切换地图:点击带黑十字的绿色按钮放大地图;点击带横线的绿色按钮缩小地图;或者点击绿色箭头查看邻近地区的地图。


METAR-TAF: